sensor_id;sensor_type;location;lat;lon;timestamp;P1;durP1;ratioP1;P2;durP2;ratioP2
2686;SDS011;1353;51.386;7.028;2022-09-25T00:00:48;16.13;;;12.70;;
2686;SDS011;1353;51.386;7.028;2022-09-25T00:03:17;18.30;;;12.90;;
2686;SDS011;1353;51.386;7.028;2022-09-25T00:05:46;20.57;;;13.10;;
2686;SDS011;1353;51.386;7.028;2022-09-25T00:08:13;14.00;;;11.60;;
2686;SDS011;1353;51.386;7.028;2022-09-25T00:10:41;23.40;;;15.47;;
2686;SDS011;1353;51.386;7.028;2022-09-25T00:13:08;17.70;;;11.67;;
2686;SDS011;1353;51.386;7.028;2022-09-25T00:15:35;16.60;;;11.40;;
2686;SDS011;1353;51.386;7.028;2022-09-25T00:18:02;17.47;;;11.60;;
2686;SDS011;1353;51.386;7.028;2022-09-25T00:20:29;21.43;;;10.37;;
2686;SDS011;1353;51.386;7.028;2022-09-25T00:22:56;20.83;;;11.10;;
2686;SDS011;1353;51.386;7.028;2022-09-25T00:25:26;18.47;;;11.40;;
2686;SDS011;1353;51.386;7.028;2022-09-25T00:27:53;15.97;;;9.67;;
2686;SDS011;1353;51.386;7.028;2022-09-25T00:30:20;12.10;;;8.43;;
2686;SDS011;1353;51.386;7.028;2022-09-25T00:32:47;13.97;;;9.90;;
2686;SDS011;1353;51.386;7.028;2022-09-25T00:35:14;10.27;;;7.93;;
2686;SDS011;1353;51.386;7.028;2022-09-25T00:37:41;13.33;;;8.47;;
2686;SDS011;1353;51.386;7.028;2022-09-25T00:40:09;9.97;;;7.07;;
2686;SDS011;1353;51.386;7.028;2022-09-25T00:42:36;13.20;;;7.47;;
2686;SDS011;1353;51.386;7.028;2022-09-25T00:45:04;8.87;;;6.77;;
2686;SDS011;1353;51.386;7.028;2022-09-25T00:47:45;13.53;;;6.80;;
2686;SDS011;1353;51.386;7.028;2022-09-25T00:53:07;9.60;;;6.37;;
2686;SDS011;1353;51.386;7.028;2022-09-25T00:55:37;9.70;;;5.80;;
2686;SDS011;1353;51.386;7.028;2022-09-25T00:58:07;10.63;;;5.40;;
2686;SDS011;1353;51.386;7.028;2022-09-25T01:00:34;8.50;;;4.93;;
2686;SDS011;1353;51.386;7.028;2022-09-25T01:03:01;6.83;;;4.77;;
2686;SDS011;1353;51.386;7.028;2022-09-25T01:05:31;10.20;;;4.80;;
2686;SDS011;1353;51.386;7.028;2022-09-25T01:08:00;11.07;;;4.73;;
2686;SDS011;1353;51.386;7.028;2022-09-25T01:10:29;7.80;;;3.80;;
2686;SDS011;1353;51.386;7.028;2022-09-25T01:12:57;7.27;;;4.87;;
2686;SDS011;1353;51.386;7.028;2022-09-25T01:15:28;6.30;;;4.57;;
2686;SDS011;1353;51.386;7.028;2022-09-25T01:18:01;5.30;;;2.67;;
2686;SDS011;1353;51.386;7.028;2022-09-25T01:23:30;4.53;;;3.07;;
2686;SDS011;1353;51.386;7.028;2022-09-25T01:26:19;5.07;;;3.33;;
2686;SDS011;1353;51.386;7.028;2022-09-25T01:29:05;8.17;;;3.90;;
2686;SDS011;1353;51.386;7.028;2022-09-25T01:31:38;5.23;;;3.60;;
2686;SDS011;1353;51.386;7.028;2022-09-25T01:34:12;9.33;;;3.20;;
2686;SDS011;1353;51.386;7.028;2022-09-25T01:36:46;6.43;;;3.60;;
2686;SDS011;1353;51.386;7.028;2022-09-25T01:39:18;11.20;;;3.63;;
2686;SDS011;1353;51.386;7.028;2022-09-25T01:41:48;5.73;;;3.47;;
2686;SDS011;1353;51.386;7.028;2022-09-25T01:44:22;9.90;;;3.97;;
2686;SDS011;1353;51.386;7.028;2022-09-25T01:46:54;7.27;;;4.13;;
2686;SDS011;1353;51.386;7.028;2022-09-25T01:49:25;6.13;;;3.60;;
2686;SDS011;1353;51.386;7.028;2022-09-25T01:51:54;12.10;;;3.57;;
2686;SDS011;1353;51.386;7.028;2022-09-25T01:54:23;7.33;;;3.60;;
2686;SDS011;1353;51.386;7.028;2022-09-25T01:56:54;11.70;;;5.57;;
2686;SDS011;1353;51.386;7.028;2022-09-25T01:59:27;7.60;;;4.30;;
2686;SDS011;1353;51.386;7.028;2022-09-25T02:02:00;8.17;;;3.83;;
2686;SDS011;1353;51.386;7.028;2022-09-25T02:04:31;5.93;;;3.60;;
2686;SDS011;1353;51.386;7.028;2022-09-25T02:07:03;5.90;;;4.73;;
2686;SDS011;1353;51.386;7.028;2022-09-25T02:09:33;10.97;;;4.93;;
2686;SDS011;1353;51.386;7.028;2022-09-25T02:12:06;7.77;;;4.30;;
2686;SDS011;1353;51.386;7.028;2022-09-25T02:14:39;7.83;;;4.50;;
2686;SDS011;1353;51.386;7.028;2022-09-25T02:17:11;7.27;;;4.47;;
2686;SDS011;1353;51.386;7.028;2022-09-25T02:20:04;7.27;;;4.77;;
2686;SDS011;1353;51.386;7.028;2022-09-25T02:22:48;7.27;;;4.67;;
2686;SDS011;1353;51.386;7.028;2022-09-25T02:25:19;10.40;;;5.20;;
2686;SDS011;1353;51.386;7.028;2022-09-25T02:27:52;8.67;;;4.63;;
2686;SDS011;1353;51.386;7.028;2022-09-25T02:30:20;7.80;;;4.87;;
2686;SDS011;1353;51.386;7.028;2022-09-25T02:32:47;6.90;;;4.07;;
2686;SDS011;1353;51.386;7.028;2022-09-25T02:35:14;11.10;;;5.63;;
2686;SDS011;1353;51.386;7.028;2022-09-25T02:37:40;8.70;;;4.60;;
2686;SDS011;1353;51.386;7.028;2022-09-25T02:40:08;10.93;;;5.10;;
2686;SDS011;1353;51.386;7.028;2022-09-25T02:42:37;11.13;;;4.83;;
2686;SDS011;1353;51.386;7.028;2022-09-25T02:45:11;5.20;;;3.90;;
2686;SDS011;1353;51.386;7.028;2022-09-25T02:47:52;5.00;;;4.43;;
2686;SDS011;1353;51.386;7.028;2022-09-25T02:50:28;7.13;;;4.10;;
2686;SDS011;1353;51.386;7.028;2022-09-25T02:53:03;7.53;;;4.10;;
2686;SDS011;1353;51.386;7.028;2022-09-25T02:55:36;11.17;;;3.60;;
2686;SDS011;1353;51.386;7.028;2022-09-25T02:58:07;8.20;;;3.17;;
2686;SDS011;1353;51.386;7.028;2022-09-25T03:00:39;5.60;;;3.37;;
2686;SDS011;1353;51.386;7.028;2022-09-25T03:03:10;5.87;;;3.83;;
2686;SDS011;1353;51.386;7.028;2022-09-25T03:05:40;7.10;;;3.83;;
2686;SDS011;1353;51.386;7.028;2022-09-25T03:08:07;4.80;;;3.47;;
2686;SDS011;1353;51.386;7.028;2022-09-25T03:10:53;10.10;;;3.80;;
2686;SDS011;1353;51.386;7.028;2022-09-25T03:13:20;6.83;;;3.33;;
2686;SDS011;1353;51.386;7.028;2022-09-25T03:15:51;12.73;;;3.27;;
2686;SDS011;1353;51.386;7.028;2022-09-25T03:18:24;3.77;;;3.40;;
2686;SDS011;1353;51.386;7.028;2022-09-25T03:20:52;8.40;;;3.17;;
2686;SDS011;1353;51.386;7.028;2022-09-25T03:23:19;5.20;;;3.40;;
2686;SDS011;1353;51.386;7.028;2022-09-25T03:25:46;9.83;;;3.87;;
2686;SDS011;1353;51.386;7.028;2022-09-25T03:28:13;5.70;;;3.43;;
2686;SDS011;1353;51.386;7.028;2022-09-25T03:30:40;9.63;;;3.33;;
2686;SDS011;1353;51.386;7.028;2022-09-25T03:33:08;3.73;;;2.33;;
2686;SDS011;1353;51.386;7.028;2022-09-25T03:35:36;6.83;;;3.07;;
2686;SDS011;1353;51.386;7.028;2022-09-25T03:38:04;11.40;;;3.53;;
2686;SDS011;1353;51.386;7.028;2022-09-25T03:40:32;7.63;;;3.00;;
2686;SDS011;1353;51.386;7.028;2022-09-25T03:42:59;5.73;;;3.20;;
2686;SDS011;1353;51.386;7.028;2022-09-25T03:45:26;6.10;;;2.73;;
2686;SDS011;1353;51.386;7.028;2022-09-25T03:47:53;7.33;;;3.97;;
2686;SDS011;1353;51.386;7.028;2022-09-25T03:50:20;7.93;;;4.13;;
2686;SDS011;1353;51.386;7.028;2022-09-25T03:52:48;9.97;;;3.57;;
2686;SDS011;1353;51.386;7.028;2022-09-25T03:55:14;6.57;;;3.10;;
2686;SDS011;1353;51.386;7.028;2022-09-25T03:57:41;12.63;;;4.07;;
2686;SDS011;1353;51.386;7.028;2022-09-25T04:00:08;11.23;;;5.00;;
2686;SDS011;1353;51.386;7.028;2022-09-25T04:02:35;7.23;;;4.00;;
2686;SDS011;1353;51.386;7.028;2022-09-25T04:05:02;9.53;;;4.40;;
2686;SDS011;1353;51.386;7.028;2022-09-25T04:07:30;7.07;;;4.50;;
2686;SDS011;1353;51.386;7.028;2022-09-25T04:09:58;7.97;;;3.63;;
2686;SDS011;1353;51.386;7.028;2022-09-25T04:12:24;7.27;;;3.30;;
2686;SDS011;1353;51.386;7.028;2022-09-25T04:14:52;8.77;;;4.20;;
2686;SDS011;1353;51.386;7.028;2022-09-25T04:17:19;10.27;;;4.00;;
2686;SDS011;1353;51.386;7.028;2022-09-25T04:19:46;11.90;;;5.70;;
2686;SDS011;1353;51.386;7.028;2022-09-25T04:22:13;10.83;;;5.67;;
2686;SDS011;1353;51.386;7.028;2022-09-25T04:24:39;18.30;;;6.70;;
2686;SDS011;1353;51.386;7.028;2022-09-25T04:27:17;19.37;;;7.00;;
2686;SDS011;1353;51.386;7.028;2022-09-25T04:29:45;11.70;;;5.97;;
2686;SDS011;1353;51.386;7.028;2022-09-25T04:32:13;8.73;;;4.90;;
2686;SDS011;1353;51.386;7.028;2022-09-25T04:34:59;7.40;;;4.83;;
2686;SDS011;1353;51.386;7.028;2022-09-25T04:37:26;13.60;;;5.40;;
2686;SDS011;1353;51.386;7.028;2022-09-25T04:39:53;9.13;;;4.50;;
2686;SDS011;1353;51.386;7.028;2022-09-25T04:42:21;6.40;;;3.83;;
2686;SDS011;1353;51.386;7.028;2022-09-25T04:44:49;8.90;;;4.70;;
2686;SDS011;1353;51.386;7.028;2022-09-25T04:47:17;8.53;;;4.90;;
2686;SDS011;1353;51.386;7.028;2022-09-25T04:49:44;8.40;;;3.90;;
2686;SDS011;1353;51.386;7.028;2022-09-25T04:52:11;6.10;;;3.90;;
2686;SDS011;1353;51.386;7.028;2022-09-25T04:54:39;12.40;;;3.40;;
2686;SDS011;1353;51.386;7.028;2022-09-25T04:57:07;9.27;;;3.70;;
2686;SDS011;1353;51.386;7.028;2022-09-25T04:59:35;4.07;;;3.03;;
2686;SDS011;1353;51.386;7.028;2022-09-25T05:02:02;6.97;;;3.73;;
2686;SDS011;1353;51.386;7.028;2022-09-25T05:04:29;9.40;;;3.30;;
2686;SDS011;1353;51.386;7.028;2022-09-25T05:06:56;6.80;;;3.63;;
2686;SDS011;1353;51.386;7.028;2022-09-25T05:09:23;5.67;;;3.10;;
2686;SDS011;1353;51.386;7.028;2022-09-25T05:11:50;10.80;;;3.33;;
2686;SDS011;1353;51.386;7.028;2022-09-25T05:14:16;8.67;;;3.57;;
2686;SDS011;1353;51.386;7.028;2022-09-25T05:16:45;7.33;;;3.50;;
2686;SDS011;1353;51.386;7.028;2022-09-25T05:19:12;7.20;;;3.77;;
2686;SDS011;1353;51.386;7.028;2022-09-25T05:21:39;7.13;;;5.37;;
2686;SDS011;1353;51.386;7.028;2022-09-25T05:24:06;10.10;;;3.53;;
2686;SDS011;1353;51.386;7.028;2022-09-25T05:26:33;10.73;;;3.33;;
2686;SDS011;1353;51.386;7.028;2022-09-25T05:29:00;13.00;;;3.70;;
2686;SDS011;1353;51.386;7.028;2022-09-25T05:31:27;6.70;;;3.17;;
2686;SDS011;1353;51.386;7.028;2022-09-25T05:33:55;6.57;;;3.47;;
2686;SDS011;1353;51.386;7.028;2022-09-25T05:36:22;11.47;;;3.40;;
2686;SDS011;1353;51.386;7.028;2022-09-25T05:38:48;8.67;;;3.10;;
2686;SDS011;1353;51.386;7.028;2022-09-25T05:41:16;9.53;;;3.50;;
2686;SDS011;1353;51.386;7.028;2022-09-25T05:43:44;2.97;;;2.67;;
2686;SDS011;1353;51.386;7.028;2022-09-25T05:46:11;8.33;;;4.60;;
2686;SDS011;1353;51.386;7.028;2022-09-25T05:48:39;9.00;;;3.93;;
2686;SDS011;1353;51.386;7.028;2022-09-25T05:51:07;7.20;;;3.10;;
2686;SDS011;1353;51.386;7.028;2022-09-25T05:53:34;6.20;;;3.60;;
2686;SDS011;1353;51.386;7.028;2022-09-25T05:56:02;5.53;;;3.10;;
2686;SDS011;1353;51.386;7.028;2022-09-25T05:58:30;6.33;;;3.27;;
2686;SDS011;1353;51.386;7.028;2022-09-25T06:00:58;9.57;;;2.90;;
2686;SDS011;1353;51.386;7.028;2022-09-25T06:03:27;26.30;;;3.87;;
2686;SDS011;1353;51.386;7.028;2022-09-25T06:05:54;10.83;;;3.47;;
2686;SDS011;1353;51.386;7.028;2022-09-25T06:08:22;6.43;;;3.80;;
2686;SDS011;1353;51.386;7.028;2022-09-25T06:10:50;12.77;;;3.80;;
2686;SDS011;1353;51.386;7.028;2022-09-25T06:13:19;10.53;;;4.50;;
2686;SDS011;1353;51.386;7.028;2022-09-25T06:15:46;14.70;;;5.07;;
2686;SDS011;1353;51.386;7.028;2022-09-25T06:18:16;9.73;;;6.57;;
2686;SDS011;1353;51.386;7.028;2022-09-25T06:20:43;10.57;;;5.10;;
2686;SDS011;1353;51.386;7.028;2022-09-25T06:23:10;10.27;;;5.37;;
2686;SDS011;1353;51.386;7.028;2022-09-25T06:25:38;9.87;;;5.33;;
2686;SDS011;1353;51.386;7.028;2022-09-25T06:28:04;13.97;;;7.63;;
2686;SDS011;1353;51.386;7.028;2022-09-25T06:30:33;12.67;;;4.90;;
2686;SDS011;1353;51.386;7.028;2022-09-25T06:33:01;8.03;;;3.93;;
2686;SDS011;1353;51.386;7.028;2022-09-25T06:35:31;4.77;;;2.90;;
2686;SDS011;1353;51.386;7.028;2022-09-25T06:37:59;3.40;;;2.40;;
2686;SDS011;1353;51.386;7.028;2022-09-25T06:40:27;4.93;;;2.57;;
2686;SDS011;1353;51.386;7.028;2022-09-25T06:42:57;3.87;;;2.40;;
2686;SDS011;1353;51.386;7.028;2022-09-25T06:45:24;5.37;;;2.23;;
2686;SDS011;1353;51.386;7.028;2022-09-25T06:47:51;6.83;;;3.50;;
2686;SDS011;1353;51.386;7.028;2022-09-25T06:50:22;9.00;;;2.90;;
2686;SDS011;1353;51.386;7.028;2022-09-25T06:52:50;4.97;;;2.17;;
2686;SDS011;1353;51.386;7.028;2022-09-25T06:55:17;4.30;;;2.63;;
2686;SDS011;1353;51.386;7.028;2022-09-25T06:57:44;6.27;;;2.80;;
2686;SDS011;1353;51.386;7.028;2022-09-25T07:00:13;5.53;;;2.53;;
2686;SDS011;1353;51.386;7.028;2022-09-25T07:02:40;4.00;;;2.43;;
2686;SDS011;1353;51.386;7.028;2022-09-25T07:05:24;4.00;;;2.50;;
2686;SDS011;1353;51.386;7.028;2022-09-25T07:07:51;6.47;;;2.53;;
2686;SDS011;1353;51.386;7.028;2022-09-25T07:10:19;3.80;;;2.20;;
2686;SDS011;1353;51.386;7.028;2022-09-25T07:12:46;2.97;;;2.30;;
2686;SDS011;1353;51.386;7.028;2022-09-25T07:15:15;6.13;;;2.37;;
2686;SDS011;1353;51.386;7.028;2022-09-25T07:17:43;9.03;;;2.67;;
2686;SDS011;1353;51.386;7.028;2022-09-25T07:20:11;4.37;;;2.33;;
2686;SDS011;1353;51.386;7.028;2022-09-25T07:22:39;8.70;;;2.33;;
2686;SDS011;1353;51.386;7.028;2022-09-25T07:25:06;4.40;;;2.50;;
2686;SDS011;1353;51.386;7.028;2022-09-25T07:27:34;4.30;;;2.70;;
2686;SDS011;1353;51.386;7.028;2022-09-25T07:30:02;3.63;;;2.23;;
2686;SDS011;1353;51.386;7.028;2022-09-25T07:32:31;7.37;;;2.37;;
2686;SDS011;1353;51.386;7.028;2022-09-25T07:34:57;5.30;;;2.70;;
2686;SDS011;1353;51.386;7.028;2022-09-25T07:37:24;10.60;;;2.63;;
2686;SDS011;1353;51.386;7.028;2022-09-25T07:39:51;5.23;;;2.30;;
2686;SDS011;1353;51.386;7.028;2022-09-25T07:42:18;6.17;;;2.47;;
2686;SDS011;1353;51.386;7.028;2022-09-25T07:44:44;5.57;;;3.20;;
2686;SDS011;1353;51.386;7.028;2022-09-25T07:47:11;6.43;;;2.47;;
2686;SDS011;1353;51.386;7.028;2022-09-25T07:49:40;3.43;;;1.67;;
2686;SDS011;1353;51.386;7.028;2022-09-25T07:52:07;6.83;;;2.17;;
2686;SDS011;1353;51.386;7.028;2022-09-25T07:54:34;6.10;;;1.80;;
2686;SDS011;1353;51.386;7.028;2022-09-25T07:57:01;5.53;;;2.07;;
2686;SDS011;1353;51.386;7.028;2022-09-25T07:59:28;3.40;;;1.80;;
2686;SDS011;1353;51.386;7.028;2022-09-25T08:01:55;4.80;;;1.80;;
2686;SDS011;1353;51.386;7.028;2022-09-25T08:04:23;9.93;;;2.10;;
2686;SDS011;1353;51.386;7.028;2022-09-25T08:06:51;5.70;;;1.50;;
2686;SDS011;1353;51.386;7.028;2022-09-25T08:09:17;4.93;;;1.73;;
2686;SDS011;1353;51.386;7.028;2022-09-25T08:11:44;2.77;;;1.43;;
2686;SDS011;1353;51.386;7.028;2022-09-25T08:14:11;3.27;;;1.90;;
2686;SDS011;1353;51.386;7.028;2022-09-25T08:16:39;4.43;;;1.43;;
2686;SDS011;1353;51.386;7.028;2022-09-25T08:19:06;6.07;;;1.67;;
2686;SDS011;1353;51.386;7.028;2022-09-25T08:21:33;2.83;;;1.40;;
2686;SDS011;1353;51.386;7.028;2022-09-25T08:24:02;4.60;;;2.20;;
2686;SDS011;1353;51.386;7.028;2022-09-25T08:26:28;3.10;;;1.30;;
2686;SDS011;1353;51.386;7.028;2022-09-25T08:28:56;5.87;;;1.63;;
2686;SDS011;1353;51.386;7.028;2022-09-25T08:31:24;2.90;;;1.00;;
2686;SDS011;1353;51.386;7.028;2022-09-25T08:33:51;1.87;;;1.10;;
2686;SDS011;1353;51.386;7.028;2022-09-25T08:36:18;5.73;;;1.40;;
2686;SDS011;1353;51.386;7.028;2022-09-25T08:38:46;2.67;;;1.67;;
2686;SDS011;1353;51.386;7.028;2022-09-25T08:41:15;4.83;;;1.47;;
2686;SDS011;1353;51.386;7.028;2022-09-25T08:43:49;3.27;;;1.23;;
2686;SDS011;1353;51.386;7.028;2022-09-25T08:46:24;3.57;;;1.00;;
2686;SDS011;1353;51.386;7.028;2022-09-25T08:49:18;3.17;;;1.20;;
2686;SDS011;1353;51.386;7.028;2022-09-25T08:51:49;4.97;;;1.30;;
2686;SDS011;1353;51.386;7.028;2022-09-25T08:54:20;4.13;;;1.23;;
2686;SDS011;1353;51.386;7.028;2022-09-25T08:56:49;9.70;;;1.93;;
2686;SDS011;1353;51.386;7.028;2022-09-25T08:59:19;3.23;;;1.10;;
2686;SDS011;1353;51.386;7.028;2022-09-25T09:01:51;3.83;;;1.37;;
2686;SDS011;1353;51.386;7.028;2022-09-25T09:04:23;4.20;;;1.47;;
2686;SDS011;1353;51.386;7.028;2022-09-25T09:06:53;4.03;;;0.90;;
2686;SDS011;1353;51.386;7.028;2022-09-25T09:09:26;1.00;;;0.70;;
2686;SDS011;1353;51.386;7.028;2022-09-25T09:11:59;2.53;;;1.20;;
2686;SDS011;1353;51.386;7.028;2022-09-25T09:14:29;2.53;;;1.10;;
2686;SDS011;1353;51.386;7.028;2022-09-25T09:17:04;4.53;;;1.63;;
2686;SDS011;1353;51.386;7.028;2022-09-25T09:19:39;3.93;;;1.50;;
2686;SDS011;1353;51.386;7.028;2022-09-25T09:22:08;7.07;;;1.03;;
2686;SDS011;1353;51.386;7.028;2022-09-25T09:24:40;2.10;;;0.93;;
2686;SDS011;1353;51.386;7.028;2022-09-25T09:27:23;5.50;;;0.97;;
2686;SDS011;1353;51.386;7.028;2022-09-25T09:30:08;5.87;;;1.00;;
2686;SDS011;1353;51.386;7.028;2022-09-25T09:32:44;2.90;;;1.00;;
2686;SDS011;1353;51.386;7.028;2022-09-25T09:35:26;2.90;;;1.00;;
2686;SDS011;1353;51.386;7.028;2022-09-25T09:38:02;6.37;;;1.10;;
2686;SDS011;1353;51.386;7.028;2022-09-25T09:40:48;3.63;;;1.00;;
2686;SDS011;1353;51.386;7.028;2022-09-25T09:43:28;2.50;;;0.70;;
2686;SDS011;1353;51.386;7.028;2022-09-25T09:46:06;4.50;;;1.03;;
2686;SDS011;1353;51.386;7.028;2022-09-25T09:48:39;2.67;;;1.70;;
2686;SDS011;1353;51.386;7.028;2022-09-25T09:51:14;2.20;;;0.83;;
2686;SDS011;1353;51.386;7.028;2022-09-25T09:53:47;2.73;;;0.70;;
2686;SDS011;1353;51.386;7.028;2022-09-25T09:56:18;2.00;;;0.80;;
2686;SDS011;1353;51.386;7.028;2022-09-25T09:58:51;2.60;;;0.90;;
2686;SDS011;1353;51.386;7.028;2022-09-25T10:01:22;3.47;;;0.90;;
2686;SDS011;1353;51.386;7.028;2022-09-25T10:03:52;4.10;;;1.13;;
2686;SDS011;1353;51.386;7.028;2022-09-25T10:06:27;1.33;;;0.83;;
2686;SDS011;1353;51.386;7.028;2022-09-25T10:08:56;3.93;;;1.03;;
2686;SDS011;1353;51.386;7.028;2022-09-25T10:11:22;1.87;;;1.40;;
2686;SDS011;1353;51.386;7.028;2022-09-25T10:13:51;1.77;;;1.03;;
2686;SDS011;1353;51.386;7.028;2022-09-25T10:16:20;2.03;;;1.10;;
2686;SDS011;1353;51.386;7.028;2022-09-25T10:18:50;1.70;;;0.73;;
2686;SDS011;1353;51.386;7.028;2022-09-25T10:21:20;2.43;;;0.90;;
2686;SDS011;1353;51.386;7.028;2022-09-25T10:23:49;2.03;;;1.00;;
2686;SDS011;1353;51.386;7.028;2022-09-25T10:26:21;2.13;;;1.00;;
2686;SDS011;1353;51.386;7.028;2022-09-25T10:28:55;2.30;;;1.07;;
2686;SDS011;1353;51.386;7.028;2022-09-25T10:31:23;2.33;;;1.10;;
2686;SDS011;1353;51.386;7.028;2022-09-25T10:33:59;4.40;;;0.70;;
2686;SDS011;1353;51.386;7.028;2022-09-25T10:36:29;2.27;;;0.77;;
2686;SDS011;1353;51.386;7.028;2022-09-25T10:38:58;4.63;;;1.20;;
2686;SDS011;1353;51.386;7.028;2022-09-25T10:41:28;2.23;;;1.30;;
2686;SDS011;1353;51.386;7.028;2022-09-25T10:43:58;3.23;;;0.80;;
2686;SDS011;1353;51.386;7.028;2022-09-25T10:46:27;2.93;;;1.00;;
2686;SDS011;1353;51.386;7.028;2022-09-25T10:49:13;2.30;;;1.00;;
2686;SDS011;1353;51.386;7.028;2022-09-25T10:52:01;3.97;;;1.20;;
2686;SDS011;1353;51.386;7.028;2022-09-25T10:54:30;4.67;;;1.10;;
2686;SDS011;1353;51.386;7.028;2022-09-25T10:56:57;1.10;;;1.00;;
2686;SDS011;1353;51.386;7.028;2022-09-25T10:59:25;2.17;;;1.80;;
2686;SDS011;1353;51.386;7.028;2022-09-25T11:01:54;1.03;;;0.93;;
2686;SDS011;1353;51.386;7.028;2022-09-25T11:04:21;2.10;;;1.13;;
2686;SDS011;1353;51.386;7.028;2022-09-25T11:06:52;1.97;;;1.10;;
2686;SDS011;1353;51.386;7.028;2022-09-25T11:09:22;3.13;;;1.43;;
2686;SDS011;1353;51.386;7.028;2022-09-25T11:11:51;2.83;;;1.13;;
2686;SDS011;1353;51.386;7.028;2022-09-25T11:14:30;4.90;;;1.20;;
2686;SDS011;1353;51.386;7.028;2022-09-25T11:16:59;2.23;;;0.90;;
2686;SDS011;1353;51.386;7.028;2022-09-25T11:19:30;1.40;;;0.80;;
2686;SDS011;1353;51.386;7.028;2022-09-25T11:22:08;2.10;;;1.07;;
2686;SDS011;1353;51.386;7.028;2022-09-25T11:24:50;2.67;;;1.00;;
2686;SDS011;1353;51.386;7.028;2022-09-25T11:27:25;1.83;;;0.87;;
2686;SDS011;1353;51.386;7.028;2022-09-25T11:30:00;2.80;;;0.80;;
2686;SDS011;1353;51.386;7.028;2022-09-25T11:32:31;5.00;;;0.80;;
2686;SDS011;1353;51.386;7.028;2022-09-25T11:38:04;4.50;;;0.80;;
2686;SDS011;1353;51.386;7.028;2022-09-25T11:40:42;1.43;;;0.90;;
2686;SDS011;1353;51.386;7.028;2022-09-25T11:43:37;1.77;;;0.90;;
2686;SDS011;1353;51.386;7.028;2022-09-25T11:46:18;1.40;;;0.87;;
2686;SDS011;1353;51.386;7.028;2022-09-25T11:48:53;3.70;;;0.73;;
2686;SDS011;1353;51.386;7.028;2022-09-25T11:51:30;1.20;;;1.00;;
2686;SDS011;1353;51.386;7.028;2022-09-25T11:54:11;1.33;;;0.70;;
2686;SDS011;1353;51.386;7.028;2022-09-25T11:56:50;1.90;;;0.80;;
2686;SDS011;1353;51.386;7.028;2022-09-25T11:59:24;3.03;;;1.13;;
2686;SDS011;1353;51.386;7.028;2022-09-25T12:02:08;1.70;;;0.77;;
2686;SDS011;1353;51.386;7.028;2022-09-25T12:04:52;1.10;;;0.90;;
2686;SDS011;1353;51.386;7.028;2022-09-25T12:07:33;2.93;;;1.00;;
2686;SDS011;1353;51.386;7.028;2022-09-25T12:10:27;0.80;;;0.70;;
2686;SDS011;1353;51.386;7.028;2022-09-25T12:13:01;4.87;;;1.10;;
2686;SDS011;1353;51.386;7.028;2022-09-25T12:15:39;1.07;;;0.80;;
2686;SDS011;1353;51.386;7.028;2022-09-25T12:18:16;1.33;;;0.90;;
2686;SDS011;1353;51.386;7.028;2022-09-25T12:20:50;1.90;;;1.33;;
2686;SDS011;1353;51.386;7.028;2022-09-25T12:23:23;3.30;;;1.00;;
2686;SDS011;1353;51.386;7.028;2022-09-25T12:26:04;1.53;;;0.80;;
2686;SDS011;1353;51.386;7.028;2022-09-25T12:28:49;1.10;;;1.00;;
2686;SDS011;1353;51.386;7.028;2022-09-25T12:31:32;1.33;;;0.60;;
2686;SDS011;1353;51.386;7.028;2022-09-25T12:34:09;2.07;;;0.60;;
2686;SDS011;1353;51.386;7.028;2022-09-25T12:36:51;1.00;;;0.70;;
2686;SDS011;1353;51.386;7.028;2022-09-25T12:39:25;1.87;;;0.90;;
2686;SDS011;1353;51.386;7.028;2022-09-25T12:41:58;1.53;;;0.60;;
2686;SDS011;1353;51.386;7.028;2022-09-25T12:44:35;2.43;;;0.60;;
2686;SDS011;1353;51.386;7.028;2022-09-25T12:47:06;2.53;;;0.83;;
2686;SDS011;1353;51.386;7.028;2022-09-25T12:49:39;3.40;;;0.70;;
2686;SDS011;1353;51.386;7.028;2022-09-25T12:52:11;1.00;;;0.70;;
2686;SDS011;1353;51.386;7.028;2022-09-25T12:54:44;1.73;;;0.90;;
2686;SDS011;1353;51.386;7.028;2022-09-25T12:57:17;2.70;;;1.00;;
2686;SDS011;1353;51.386;7.028;2022-09-25T12:59:50;1.80;;;1.23;;
2686;SDS011;1353;51.386;7.028;2022-09-25T13:02:21;1.63;;;0.80;;
2686;SDS011;1353;51.386;7.028;2022-09-25T13:04:55;2.53;;;1.17;;
2686;SDS011;1353;51.386;7.028;2022-09-25T13:07:31;2.33;;;1.23;;
2686;SDS011;1353;51.386;7.028;2022-09-25T13:10:01;2.23;;;0.83;;
2686;SDS011;1353;51.386;7.028;2022-09-25T13:12:34;1.53;;;1.00;;
2686;SDS011;1353;51.386;7.028;2022-09-25T13:15:03;0.70;;;0.50;;
2686;SDS011;1353;51.386;7.028;2022-09-25T13:17:33;2.93;;;0.73;;
2686;SDS011;1353;51.386;7.028;2022-09-25T13:23:10;2.43;;;0.60;;
2686;SDS011;1353;51.386;7.028;2022-09-25T13:25:39;3.80;;;1.10;;
2686;SDS011;1353;51.386;7.028;2022-09-25T13:28:08;3.40;;;0.80;;
2686;SDS011;1353;51.386;7.028;2022-09-25T13:30:55;0.80;;;0.60;;
2686;SDS011;1353;51.386;7.028;2022-09-25T13:33:27;2.13;;;0.70;;
2686;SDS011;1353;51.386;7.028;2022-09-25T13:36:06;3.73;;;0.60;;
2686;SDS011;1353;51.386;7.028;2022-09-25T13:38:39;1.10;;;0.50;;
2686;SDS011;1353;51.386;7.028;2022-09-25T13:41:27;1.00;;;0.60;;
2686;SDS011;1353;51.386;7.028;2022-09-25T13:47:31;2.00;;;0.67;;
2686;SDS011;1353;51.386;7.028;2022-09-25T13:50:11;2.13;;;0.90;;
2686;SDS011;1353;51.386;7.028;2022-09-25T13:52:50;3.80;;;0.93;;
2686;SDS011;1353;51.386;7.028;2022-09-25T13:55:41;0.90;;;0.60;;
2686;SDS011;1353;51.386;7.028;2022-09-25T13:58:17;0.90;;;0.60;;
2686;SDS011;1353;51.386;7.028;2022-09-25T14:00:51;1.00;;;0.70;;
2686;SDS011;1353;51.386;7.028;2022-09-25T14:03:27;1.47;;;0.60;;
2686;SDS011;1353;51.386;7.028;2022-09-25T14:05:57;1.03;;;0.97;;
2686;SDS011;1353;51.386;7.028;2022-09-25T14:08:26;2.00;;;0.83;;
2686;SDS011;1353;51.386;7.028;2022-09-25T14:10:56;2.80;;;0.80;;
2686;SDS011;1353;51.386;7.028;2022-09-25T14:13:26;1.33;;;0.50;;
2686;SDS011;1353;51.386;7.028;2022-09-25T14:15:55;1.20;;;0.70;;
2686;SDS011;1353;51.386;7.028;2022-09-25T14:18:29;1.60;;;0.80;;
2686;SDS011;1353;51.386;7.028;2022-09-25T14:21:01;1.30;;;0.57;;
2686;SDS011;1353;51.386;7.028;2022-09-25T14:23:34;1.17;;;1.07;;
2686;SDS011;1353;51.386;7.028;2022-09-25T14:26:17;1.93;;;0.90;;
2686;SDS011;1353;51.386;7.028;2022-09-25T14:28:46;0.83;;;0.70;;
2686;SDS011;1353;51.386;7.028;2022-09-25T14:31:21;0.80;;;0.60;;
2686;SDS011;1353;51.386;7.028;2022-09-25T14:34:12;2.23;;;0.70;;
2686;SDS011;1353;51.386;7.028;2022-09-25T14:37:00;2.40;;;0.60;;
2686;SDS011;1353;51.386;7.028;2022-09-25T14:39:39;0.80;;;0.60;;
2686;SDS011;1353;51.386;7.028;2022-09-25T14:42:34;1.27;;;0.70;;
2686;SDS011;1353;51.386;7.028;2022-09-25T14:45:18;3.73;;;0.80;;
2686;SDS011;1353;51.386;7.028;2022-09-25T14:47:55;1.57;;;0.83;;
2686;SDS011;1353;51.386;7.028;2022-09-25T14:50:26;0.70;;;0.50;;
2686;SDS011;1353;51.386;7.028;2022-09-25T14:52:56;1.10;;;0.70;;
2686;SDS011;1353;51.386;7.028;2022-09-25T14:55:25;0.97;;;0.60;;
2686;SDS011;1353;51.386;7.028;2022-09-25T14:57:59;1.23;;;0.70;;
2686;SDS011;1353;51.386;7.028;2022-09-25T15:00:27;1.43;;;0.73;;
2686;SDS011;1353;51.386;7.028;2022-09-25T15:02:54;2.80;;;0.63;;
2686;SDS011;1353;51.386;7.028;2022-09-25T15:05:29;1.23;;;0.80;;
2686;SDS011;1353;51.386;7.028;2022-09-25T15:07:58;0.90;;;0.70;;
2686;SDS011;1353;51.386;7.028;2022-09-25T15:10:29;1.17;;;0.70;;
2686;SDS011;1353;51.386;7.028;2022-09-25T15:13:05;1.30;;;0.60;;
2686;SDS011;1353;51.386;7.028;2022-09-25T15:15:34;1.47;;;0.60;;
2686;SDS011;1353;51.386;7.028;2022-09-25T15:18:01;1.63;;;0.70;;
2686;SDS011;1353;51.386;7.028;2022-09-25T15:20:29;1.30;;;0.60;;
2686;SDS011;1353;51.386;7.028;2022-09-25T15:22:58;4.87;;;0.87;;
2686;SDS011;1353;51.386;7.028;2022-09-25T15:25:28;2.80;;;0.90;;
2686;SDS011;1353;51.386;7.028;2022-09-25T15:27:58;1.07;;;0.90;;
2686;SDS011;1353;51.386;7.028;2022-09-25T15:30:27;4.73;;;1.17;;
2686;SDS011;1353;51.386;7.028;2022-09-25T15:32:54;1.27;;;0.80;;
2686;SDS011;1353;51.386;7.028;2022-09-25T15:35:23;0.80;;;0.77;;
2686;SDS011;1353;51.386;7.028;2022-09-25T15:38:00;1.53;;;0.60;;
2686;SDS011;1353;51.386;7.028;2022-09-25T15:40:29;2.53;;;0.90;;
2686;SDS011;1353;51.386;7.028;2022-09-25T15:42:56;3.70;;;1.20;;
2686;SDS011;1353;51.386;7.028;2022-09-25T15:45:34;2.40;;;1.10;;
2686;SDS011;1353;51.386;7.028;2022-09-25T15:48:10;2.20;;;1.13;;
2686;SDS011;1353;51.386;7.028;2022-09-25T15:50:48;4.10;;;1.13;;
2686;SDS011;1353;51.386;7.028;2022-09-25T15:53:27;3.50;;;1.60;;